createdAt,value
2019-02-24T00:00:49.617Z,21.50
2019-02-24T00:03:18.961Z,24.77
2019-02-24T00:05:48.332Z,22.10
2019-02-24T00:08:17.670Z,17.55
2019-02-24T00:10:47.012Z,18.90
2019-02-24T00:13:16.377Z,23.10
2019-02-24T00:15:45.830Z,19.65
2019-02-24T00:18:15.226Z,23.73
2019-02-24T00:20:44.582Z,23.27
2019-02-24T00:23:13.952Z,15.68
2019-02-24T00:25:43.340Z,12.23
2019-02-24T00:28:12.677Z,16.23
2019-02-24T00:30:42.065Z,19.95
2019-02-24T00:33:11.451Z,19.98
2019-02-24T00:35:40.903Z,19.50
2019-02-24T00:38:10.204Z,21.15
2019-02-24T00:40:39.571Z,23.15
2019-02-24T00:43:09.053Z,32.10
2019-02-24T00:45:38.515Z,29.02
2019-02-24T00:48:07.891Z,35.03
2019-02-24T00:50:37.311Z,32.33
2019-02-24T00:53:06.728Z,25.70
2019-02-24T00:55:36.053Z,29.10
2019-02-24T00:58:05.402Z,37.63
2019-02-24T01:00:34.770Z,28.00
2019-02-24T01:03:04.232Z,22.98
2019-02-24T01:05:33.591Z,24.47
2019-02-24T01:08:02.952Z,26.87
2019-02-24T01:10:32.298Z,28.15
2019-02-24T01:13:01.796Z,32.23
2019-02-24T01:15:31.236Z,33.63
2019-02-24T01:18:00.567Z,31.35
2019-02-24T01:20:29.913Z,29.23
2019-02-24T01:22:59.258Z,32.75
2019-02-24T01:25:28.628Z,23.87
2019-02-24T01:27:58.020Z,26.42
2019-02-24T01:30:27.379Z,24.37
2019-02-24T01:32:56.717Z,19.65
2019-02-24T01:35:26.113Z,24.77
2019-02-24T01:37:55.468Z,24.05
2019-02-24T01:40:24.794Z,27.25
2019-02-24T01:42:54.135Z,23.70
2019-02-24T01:45:23.480Z,24.15
2019-02-24T01:47:52.821Z,24.47
2019-02-24T01:50:22.191Z,23.75
2019-02-24T01:52:51.539Z,30.68
2019-02-24T01:55:20.896Z,35.05
2019-02-24T01:57:50.262Z,36.33
2019-02-24T02:00:19.637Z,29.67
2019-02-24T02:02:49.113Z,25.88
2019-02-24T02:05:18.482Z,29.63
2019-02-24T02:07:47.850Z,23.62
2019-02-24T02:10:17.188Z,25.70
2019-02-24T02:12:46.540Z,24.35
2019-02-24T02:15:15.875Z,17.02
2019-02-24T02:17:45.249Z,22.17
2019-02-24T02:20:14.596Z,15.08
2019-02-24T02:22:43.958Z,17.23
2019-02-24T02:25:13.307Z,13.00
2019-02-24T02:27:42.625Z,14.15
2019-02-24T02:30:12.048Z,14.38
2019-02-24T02:32:41.407Z,15.18
2019-02-24T02:35:10.717Z,16.93
2019-02-24T02:37:40.048Z,15.10
2019-02-24T02:40:09.730Z,16.25
2019-02-24T02:42:39.048Z,14.87
2019-02-24T02:45:08.462Z,15.83
2019-02-24T02:47:37.836Z,22.17
2019-02-24T02:50:07.340Z,23.85
2019-02-24T02:52:37.470Z,21.35
2019-02-24T02:55:06.905Z,18.50
2019-02-24T02:57:36.243Z,21.45
2019-02-24T03:00:10.027Z,14.20
2019-02-24T03:02:39.391Z,20.48
2019-02-24T03:05:08.885Z,21.87
2019-02-24T03:07:42.157Z,14.38
2019-02-24T03:10:11.496Z,14.80
2019-02-24T03:12:40.830Z,13.40
2019-02-24T03:15:10.301Z,12.10
2019-02-24T03:17:39.697Z,13.10
2019-02-24T03:20:09.111Z,13.60
2019-02-24T03:22:38.441Z,20.37
2019-02-24T03:25:07.881Z,15.20
2019-02-24T03:27:37.185Z,19.30
2019-02-24T03:30:06.671Z,16.95
2019-02-24T03:32:36.022Z,11.75
2019-02-24T03:35:05.368Z,15.65
2019-02-24T03:37:34.741Z,19.82
2019-02-24T03:40:04.161Z,20.37
2019-02-24T03:42:33.587Z,23.57
2019-02-24T03:45:02.968Z,13.08
2019-02-24T03:47:32.339Z,19.00
2019-02-24T03:50:01.691Z,14.00
2019-02-24T03:52:31.020Z,14.43
2019-02-24T03:55:00.421Z,14.00
2019-02-24T03:57:29.765Z,14.15
2019-02-24T03:59:59.093Z,15.83
2019-02-24T04:02:28.396Z,9.40
2019-02-24T04:04:57.718Z,5.58
2019-02-24T04:07:27.057Z,11.55
2019-02-24T04:09:56.436Z,9.13
2019-02-24T04:12:25.933Z,11.50
2019-02-24T04:14:55.286Z,6.20
2019-02-24T04:17:24.640Z,7.20
2019-02-24T04:19:53.951Z,6.92
2019-02-24T04:22:23.253Z,6.12
2019-02-24T04:24:52.562Z,8.85
2019-02-24T04:27:21.950Z,9.10
2019-02-24T04:29:51.330Z,8.00
2019-02-24T04:32:20.702Z,10.25
2019-02-24T04:34:50.055Z,8.53
2019-02-24T04:37:19.442Z,10.82
2019-02-24T04:39:48.783Z,6.55
2019-02-24T04:42:18.139Z,6.83
2019-02-24T04:44:47.520Z,10.53
2019-02-24T04:47:16.887Z,11.63
2019-02-24T04:49:46.210Z,13.90
2019-02-24T04:52:15.539Z,10.25
2019-02-24T04:54:44.949Z,19.45
2019-02-24T04:57:14.287Z,26.77
2019-02-24T04:59:43.672Z,24.52
2019-02-24T05:02:13.038Z,21.42
2019-02-24T05:04:42.351Z,22.85
2019-02-24T05:07:11.683Z,20.48
2019-02-24T05:09:41.003Z,22.02
2019-02-24T05:12:10.354Z,30.35
2019-02-24T05:14:39.723Z,24.52
2019-02-24T05:17:09.105Z,27.60
2019-02-24T05:19:38.436Z,27.27
2019-02-24T05:22:07.793Z,27.98
2019-02-24T05:24:37.095Z,19.98
2019-02-24T05:27:06.451Z,22.58
2019-02-24T05:29:44.706Z,21.37
2019-02-24T05:32:06.976Z,18.90
2019-02-24T05:34:36.351Z,19.23
2019-02-24T05:37:05.693Z,16.27
2019-02-24T05:39:35.031Z,23.85
2019-02-24T05:42:04.349Z,20.77
2019-02-24T05:44:33.737Z,16.90
2019-02-24T05:47:03.328Z,15.23
2019-02-24T05:49:32.677Z,12.98
2019-02-24T05:52:02.029Z,17.90
2019-02-24T05:54:32.529Z,14.38
2019-02-24T05:57:01.960Z,12.70
2019-02-24T05:59:31.593Z,15.58
2019-02-24T06:02:01.068Z,17.87
2019-02-24T06:04:30.463Z,16.82
2019-02-24T06:06:59.904Z,15.83
2019-02-24T06:09:29.279Z,14.65
2019-02-24T06:11:58.608Z,21.50
2019-02-24T06:14:28.500Z,23.22
2019-02-24T06:16:57.826Z,19.57
2019-02-24T06:19:27.502Z,17.45
2019-02-24T06:21:56.888Z,19.83
2019-02-24T06:24:26.242Z,21.03
2019-02-24T06:26:55.618Z,22.90
2019-02-24T06:29:24.937Z,20.30
2019-02-24T06:31:54.473Z,22.97
2019-02-24T06:34:25.257Z,27.10
2019-02-24T06:36:54.645Z,17.20
2019-02-24T06:39:23.972Z,22.10
2019-02-24T06:41:53.399Z,21.30
2019-02-24T06:44:22.753Z,11.97
2019-02-24T06:46:52.155Z,19.90
2019-02-24T06:49:21.667Z,14.73
2019-02-24T06:51:51.178Z,16.80
2019-02-24T06:54:20.603Z,13.07
2019-02-24T06:56:49.963Z,9.93
2019-02-24T06:59:19.268Z,8.17
2019-02-24T07:01:48.732Z,12.20
2019-02-24T07:04:18.285Z,7.10
2019-02-24T07:06:47.636Z,10.90
2019-02-24T07:09:16.984Z,12.30
2019-02-24T07:11:46.306Z,16.00
2019-02-24T07:14:15.654Z,13.77
2019-02-24T07:16:45.229Z,20.00
2019-02-24T07:19:14.617Z,13.57
2019-02-24T07:21:44.010Z,12.23
2019-02-24T07:24:13.363Z,17.47
2019-02-24T07:26:42.787Z,17.43
2019-02-24T07:29:12.106Z,13.13
2019-02-24T07:31:41.441Z,9.63
2019-02-24T07:34:10.809Z,10.03
2019-02-24T07:36:40.119Z,7.67
2019-02-24T07:39:09.479Z,8.73
2019-02-24T07:41:38.811Z,13.30
2019-02-24T07:44:08.166Z,10.77
2019-02-24T07:46:37.543Z,7.90
2019-02-24T07:49:06.961Z,10.67
2019-02-24T07:51:36.324Z,10.77
2019-02-24T07:54:05.723Z,12.97
2019-02-24T07:56:35.023Z,8.40
2019-02-24T07:59:04.395Z,11.33
2019-02-24T08:01:33.851Z,13.63
2019-02-24T08:04:03.199Z,9.30
2019-02-24T08:06:32.513Z,10.93
2019-02-24T08:09:01.917Z,10.23
2019-02-24T08:11:31.286Z,10.73
2019-02-24T08:14:00.638Z,16.20
2019-02-24T08:16:29.992Z,12.20
2019-02-24T08:18:59.363Z,12.77
2019-02-24T08:21:28.723Z,10.23
2019-02-24T08:23:58.113Z,11.63
2019-02-24T08:26:27.492Z,10.70
2019-02-24T08:28:56.844Z,12.83
2019-02-24T08:31:26.214Z,10.80
2019-02-24T08:33:55.560Z,11.73
2019-02-24T08:36:24.952Z,13.53
2019-02-24T08:38:54.280Z,8.97
2019-02-24T08:41:23.616Z,13.23
2019-02-24T08:43:53.005Z,12.10
2019-02-24T08:46:22.357Z,7.47
2019-02-24T08:48:51.765Z,9.20
2019-02-24T08:51:21.098Z,11.27
2019-02-24T08:53:50.491Z,8.67
2019-02-24T08:56:19.868Z,11.20
2019-02-24T08:58:49.220Z,14.30
2019-02-24T09:01:18.707Z,13.53
2019-02-24T09:03:48.204Z,9.30
2019-02-24T09:06:17.507Z,11.07
2019-02-24T09:08:46.886Z,10.93
2019-02-24T09:11:16.225Z,7.37
2019-02-24T09:13:45.532Z,8.30
2019-02-24T09:16:14.881Z,9.37
2019-02-24T09:18:44.225Z,7.83
2019-02-24T09:21:13.564Z,7.30
2019-02-24T09:23:42.896Z,15.13
2019-02-24T09:26:12.251Z,8.93
2019-02-24T09:28:41.573Z,7.20
2019-02-24T09:31:10.988Z,18.47
2019-02-24T09:33:40.318Z,7.17
2019-02-24T09:36:09.744Z,9.03
2019-02-24T09:38:39.127Z,11.80
2019-02-24T09:41:08.507Z,13.80
2019-02-24T09:43:37.971Z,12.80
2019-02-24T09:46:07.320Z,6.27
2019-02-24T09:48:36.892Z,9.20
2019-02-24T09:51:06.257Z,9.63
2019-02-24T09:53:35.648Z,19.50
2019-02-24T09:56:05.324Z,6.07
2019-02-24T09:58:34.696Z,5.90
2019-02-24T10:01:10.600Z,8.43
2019-02-24T10:03:35.211Z,7.07
2019-02-24T10:06:04.599Z,7.17
2019-02-24T10:08:33.956Z,6.00
2019-02-24T10:11:03.324Z,6.43
2019-02-24T10:13:32.664Z,5.60
2019-02-24T10:16:02.115Z,6.17
2019-02-24T10:18:31.480Z,6.33
2019-02-24T10:21:01.025Z,6.40
2019-02-24T10:23:30.414Z,4.90
2019-02-24T10:25:59.847Z,5.57
2019-02-24T10:28:29.189Z,7.47
2019-02-24T10:30:58.703Z,6.13
2019-02-24T10:33:28.110Z,5.70
2019-02-24T10:35:57.463Z,5.77
2019-02-24T10:38:26.866Z,6.13
2019-02-24T10:40:56.262Z,5.97
2019-02-24T10:43:25.690Z,8.63
2019-02-24T10:45:55.001Z,8.10
2019-02-24T10:48:24.356Z,6.10
2019-02-24T10:50:53.726Z,7.20
2019-02-24T10:53:23.051Z,6.70
2019-02-24T10:55:52.490Z,4.80
2019-02-24T10:58:21.826Z,5.13
2019-02-24T11:00:51.161Z,5.40
2019-02-24T11:03:20.811Z,6.83
2019-02-24T11:05:50.168Z,7.57
2019-02-24T11:08:19.614Z,6.07
2019-02-24T11:10:48.976Z,5.90
2019-02-24T11:13:18.350Z,5.83
2019-02-24T11:15:47.722Z,5.17
2019-02-24T11:18:17.135Z,5.90
2019-02-24T11:20:46.532Z,7.67
2019-02-24T11:23:15.992Z,7.10
2019-02-24T11:25:45.447Z,5.30
2019-02-24T11:28:14.809Z,6.77
2019-02-24T11:30:44.385Z,8.33
2019-02-24T11:33:13.734Z,6.93
2019-02-24T11:35:43.180Z,7.87
2019-02-24T11:38:13.594Z,6.43
2019-02-24T11:40:43.192Z,6.67
2019-02-24T11:43:15.433Z,6.57
2019-02-24T11:45:44.546Z,8.57
2019-02-24T11:48:14.563Z,6.43
2019-02-24T11:50:44.298Z,5.77
2019-02-24T11:53:14.218Z,7.17
2019-02-24T11:55:46.729Z,9.83
2019-02-24T11:58:16.681Z,9.60
2019-02-24T12:00:46.573Z,11.17
2019-02-24T12:03:16.411Z,11.10
2019-02-24T12:05:46.486Z,8.77
2019-02-24T12:08:21.501Z,7.67
2019-02-24T12:10:57.188Z,7.73
2019-02-24T12:13:34.572Z,10.23
2019-02-24T12:16:03.980Z,10.43
2019-02-24T12:18:33.280Z,7.03
2019-02-24T12:21:02.621Z,9.40
2019-02-24T12:23:31.919Z,7.97
2019-02-24T12:26:01.304Z,12.40
2019-02-24T12:28:30.665Z,14.97
2019-02-24T12:31:00.075Z,7.50
2019-02-24T12:33:29.402Z,6.73
2019-02-24T12:35:58.890Z,9.03
2019-02-24T12:38:28.330Z,11.87
2019-02-24T12:40:58.881Z,9.77
2019-02-24T12:43:28.359Z,6.73
2019-02-24T12:45:57.694Z,8.47
2019-02-24T12:48:27.042Z,9.63
2019-02-24T12:50:56.386Z,7.20
2019-02-24T12:53:27.524Z,8.50
2019-02-24T12:55:56.782Z,9.03
2019-02-24T12:58:26.123Z,5.13
2019-02-24T13:00:55.483Z,6.13
2019-02-24T13:03:24.850Z,5.00
2019-02-24T13:05:54.204Z,7.00
2019-02-24T13:08:23.517Z,5.87
2019-02-24T13:10:52.886Z,8.60
2019-02-24T13:13:22.238Z,10.50
2019-02-24T13:15:51.848Z,7.30
2019-02-24T13:18:21.209Z,6.30
2019-02-24T13:20:50.547Z,5.93
2019-02-24T13:23:20.018Z,7.40
2019-02-24T13:25:49.442Z,8.65
2019-02-24T13:28:18.776Z,8.65
2019-02-24T13:30:48.243Z,5.80
2019-02-24T13:33:17.647Z,8.48
2019-02-24T13:35:48.475Z,10.08
2019-02-24T13:38:17.836Z,5.97
2019-02-24T13:40:47.188Z,11.05
2019-02-24T13:43:16.858Z,7.05
2019-02-24T13:45:46.289Z,9.10
2019-02-24T13:48:15.677Z,6.58
2019-02-24T13:50:45.034Z,8.58
2019-02-24T13:53:14.370Z,8.20
2019-02-24T13:55:43.704Z,7.83
2019-02-24T13:58:13.054Z,7.85
2019-02-24T14:00:42.510Z,7.35
2019-02-24T14:03:11.968Z,8.48
2019-02-24T14:05:41.732Z,8.18
2019-02-24T14:08:11.433Z,7.10
2019-02-24T14:10:40.757Z,7.45
2019-02-24T14:13:10.120Z,6.55
2019-02-24T14:15:39.765Z,7.87
2019-02-24T14:18:09.150Z,11.57
2019-02-24T14:20:38.979Z,6.80
2019-02-24T14:23:08.435Z,6.53
2019-02-24T14:25:37.800Z,16.20
2019-02-24T14:28:07.146Z,6.45
2019-02-24T14:30:36.534Z,7.42
2019-02-24T14:33:05.860Z,6.25
2019-02-24T14:35:35.184Z,8.50
2019-02-24T14:38:04.676Z,13.62
2019-02-24T14:40:34.010Z,8.03
2019-02-24T14:43:03.364Z,7.37
2019-02-24T14:45:32.758Z,5.20
2019-02-24T14:48:02.090Z,7.85
2019-02-24T14:50:31.747Z,6.67
2019-02-24T14:53:01.475Z,7.62
2019-02-24T14:55:30.790Z,11.60
2019-02-24T14:58:00.109Z,7.20
2019-02-24T15:00:29.816Z,5.50
2019-02-24T15:02:59.166Z,4.40
2019-02-24T15:05:28.791Z,6.08
2019-02-24T15:07:58.458Z,6.62
2019-02-24T15:10:28.027Z,4.00
2019-02-24T15:12:57.349Z,9.15
2019-02-24T15:15:32.895Z,12.95
2019-02-24T15:17:58.206Z,8.48
2019-02-24T15:20:27.564Z,8.00
2019-02-24T15:22:56.913Z,9.20
2019-02-24T15:25:26.227Z,6.15
2019-02-24T15:27:55.587Z,14.18
2019-02-24T15:30:27.682Z,9.03
2019-02-24T15:32:57.016Z,8.18
2019-02-24T15:35:26.435Z,5.58
2019-02-24T15:37:55.950Z,8.85
2019-02-24T15:40:26.173Z,7.92
2019-02-24T15:42:55.494Z,6.28
2019-02-24T15:45:25.096Z,5.95
2019-02-24T15:47:54.406Z,9.55
2019-02-24T15:50:23.749Z,5.42
2019-02-24T15:52:53.131Z,6.28
2019-02-24T15:55:22.829Z,9.73
2019-02-24T15:57:52.163Z,10.00
2019-02-24T16:00:21.737Z,17.00
2019-02-24T16:02:51.218Z,9.43
2019-02-24T16:05:20.553Z,9.93
2019-02-24T16:07:50.011Z,10.90
2019-02-24T16:10:19.513Z,9.50
2019-02-24T16:12:48.894Z,8.95
2019-02-24T16:15:39.507Z,10.20
2019-02-24T16:18:09.389Z,10.80
2019-02-24T16:20:38.905Z,13.45
2019-02-24T16:23:08.648Z,21.15
2019-02-24T16:25:38.311Z,9.63
2019-02-24T16:28:07.750Z,10.23
2019-02-24T16:30:37.174Z,7.20
2019-02-24T16:33:10.626Z,10.40
2019-02-24T16:35:37.609Z,10.68
2019-02-24T16:38:08.401Z,9.53
2019-02-24T16:40:38.235Z,10.63
2019-02-24T16:43:07.609Z,9.43
2019-02-24T16:45:40.014Z,9.35
2019-02-24T16:48:09.370Z,9.63
2019-02-24T16:50:38.766Z,7.12
2019-02-24T16:53:08.093Z,9.35
2019-02-24T16:55:37.517Z,9.83
2019-02-24T16:58:06.922Z,6.95
2019-02-24T17:00:36.290Z,11.93
2019-02-24T17:03:05.674Z,8.53
2019-02-24T17:05:35.148Z,11.35
2019-02-24T17:08:04.848Z,8.03
2019-02-24T17:10:34.516Z,8.23
2019-02-24T17:13:03.949Z,8.55
2019-02-24T17:15:33.329Z,9.93
2019-02-24T17:18:03.027Z,10.55
2019-02-24T17:20:32.405Z,9.45
2019-02-24T17:23:02.718Z,7.62
2019-02-24T17:25:32.128Z,8.75
2019-02-24T17:28:01.494Z,8.63
2019-02-24T17:30:31.188Z,10.85
2019-02-24T17:33:00.532Z,9.00
2019-02-24T17:35:30.000Z,8.05
2019-02-24T17:37:59.416Z,10.18
2019-02-24T17:40:29.437Z,7.87
2019-02-24T17:42:58.787Z,11.38
2019-02-24T17:45:29.570Z,11.35
2019-02-24T17:47:58.921Z,13.95
2019-02-24T17:50:28.291Z,12.25
2019-02-24T17:52:57.686Z,17.57
2019-02-24T17:55:27.096Z,14.15
2019-02-24T17:57:56.723Z,15.28
2019-02-24T18:00:32.138Z,18.30
2019-02-24T18:03:01.850Z,16.45
2019-02-24T18:05:33.736Z,18.00
2019-02-24T18:08:03.206Z,18.15
2019-02-24T18:10:32.747Z,15.70
2019-02-24T18:13:02.499Z,14.90
2019-02-24T18:15:31.871Z,15.70
2019-02-24T18:18:01.386Z,15.93
2019-02-24T18:20:30.870Z,16.02
2019-02-24T18:23:00.259Z,18.10
2019-02-24T18:25:29.904Z,15.63
2019-02-24T18:27:59.663Z,16.82
2019-02-24T18:30:31.288Z,15.83
2019-02-24T18:33:00.721Z,17.92
2019-02-24T18:35:30.127Z,19.52
2019-02-24T18:37:59.514Z,15.25
2019-02-24T18:40:29.393Z,12.37
2019-02-24T18:43:00.526Z,13.50
2019-02-24T18:45:30.133Z,13.90
2019-02-24T18:47:59.457Z,15.53
2019-02-24T18:50:28.862Z,16.23
2019-02-24T18:52:58.241Z,12.50
2019-02-24T18:55:27.602Z,11.35
2019-02-24T18:57:56.971Z,9.73
2019-02-24T19:00:26.332Z,13.80
2019-02-24T19:02:55.721Z,11.48
2019-02-24T19:05:25.529Z,11.55
2019-02-24T19:07:56.057Z,10.43
2019-02-24T19:10:25.452Z,11.18
2019-02-24T19:12:54.846Z,17.92
2019-02-24T19:15:24.223Z,11.78
2019-02-24T19:17:53.575Z,10.90
2019-02-24T19:20:24.703Z,14.65
2019-02-24T19:22:54.023Z,15.88
2019-02-24T19:25:23.412Z,17.35
2019-02-24T19:27:52.873Z,21.23
2019-02-24T19:30:24.622Z,18.70
2019-02-24T19:32:55.747Z,17.32
2019-02-24T19:35:25.158Z,16.90
2019-02-24T19:37:54.905Z,17.87
2019-02-24T19:40:24.264Z,18.27
2019-02-24T19:42:53.623Z,18.55
2019-02-24T19:45:23.035Z,17.48
2019-02-24T19:47:52.392Z,20.08
2019-02-24T19:50:21.887Z,13.83
2019-02-24T19:52:51.243Z,14.55
2019-02-24T19:55:20.578Z,14.47
2019-02-24T19:57:49.959Z,17.00
2019-02-24T20:00:20.516Z,17.35
2019-02-24T20:02:49.980Z,22.55
2019-02-24T20:05:19.739Z,21.23
2019-02-24T20:07:49.166Z,18.55
2019-02-24T20:10:20.401Z,15.40
2019-02-24T20:12:49.755Z,14.40
2019-02-24T20:15:19.071Z,16.87
2019-02-24T20:17:48.710Z,16.52
2019-02-24T20:20:18.070Z,13.72
2019-02-24T20:22:47.485Z,11.03
2019-02-24T20:25:16.994Z,14.05
2019-02-24T20:27:49.176Z,21.97
2019-02-24T20:30:23.571Z,19.87
2019-02-24T20:32:52.902Z,26.37
2019-02-24T20:35:22.272Z,21.23
2019-02-24T20:37:51.663Z,19.20
2019-02-24T20:40:25.252Z,19.90
2019-02-24T20:42:54.884Z,23.65
2019-02-24T20:45:26.323Z,23.98
2019-02-24T20:47:56.195Z,24.40
2019-02-24T20:50:25.578Z,20.25
2019-02-24T20:52:54.926Z,22.32
2019-02-24T20:55:24.516Z,27.02
2019-02-24T20:57:53.910Z,25.10
2019-02-24T21:00:25.983Z,25.95
2019-02-24T21:02:55.948Z,25.10
2019-02-24T21:05:25.409Z,27.52
2019-02-24T21:07:54.767Z,27.02
2019-02-24T21:10:24.186Z,31.30
2019-02-24T21:12:54.636Z,29.07
2019-02-24T21:15:24.366Z,29.92
2019-02-24T21:17:53.781Z,24.27
2019-02-24T21:20:25.058Z,22.00
2019-02-24T21:22:54.845Z,22.55
2019-02-24T21:25:24.217Z,22.45
2019-02-24T21:27:53.575Z,20.45
2019-02-24T21:30:23.344Z,20.17
2019-02-24T21:32:52.722Z,15.30
2019-02-24T21:35:22.217Z,22.98
2019-02-24T21:37:51.545Z,21.70
2019-02-24T21:40:20.913Z,19.62
2019-02-24T21:42:50.267Z,19.87
2019-02-24T21:45:20.181Z,20.23
2019-02-24T21:47:49.548Z,29.48
2019-02-24T21:50:19.110Z,22.00
2019-02-24T21:52:48.499Z,28.35
2019-02-24T21:55:17.926Z,28.30
2019-02-24T21:57:47.447Z,23.75
2019-02-24T22:00:20.741Z,26.82
2019-02-24T22:02:50.108Z,22.93
2019-02-24T22:05:19.784Z,24.43
2019-02-24T22:07:49.121Z,20.95
2019-02-24T22:10:18.588Z,20.55
2019-02-24T22:12:47.940Z,27.00
2019-02-24T22:15:21.476Z,27.77
2019-02-24T22:17:50.837Z,29.10
2019-02-24T22:20:20.211Z,32.45
2019-02-24T22:22:49.592Z,29.98
2019-02-24T22:25:19.181Z,28.50
2019-02-24T22:27:48.517Z,24.57
2019-02-24T22:30:18.379Z,24.12
2019-02-24T22:32:47.859Z,28.73
2019-02-24T22:35:17.210Z,25.52
2019-02-24T22:37:46.573Z,24.40
2019-02-24T22:40:16.988Z,25.52
2019-02-24T22:42:46.787Z,25.52
2019-02-24T22:47:47.803Z,28.73
2019-02-24T22:50:18.234Z,41.20
2019-02-24T22:52:47.677Z,96.57
2019-02-24T22:55:17.233Z,90.87
2019-02-24T22:57:46.574Z,100.82
2019-02-24T23:01:09.857Z,100.38
2019-02-24T23:03:40.687Z,102.65
2019-02-24T23:06:10.046Z,62.80
2019-02-24T23:08:39.381Z,56.83
2019-02-24T23:11:08.896Z,59.65
2019-02-24T23:13:39.396Z,51.83
2019-02-24T23:16:08.871Z,51.70
2019-02-24T23:18:38.235Z,57.50
2019-02-24T23:21:07.571Z,59.33
2019-02-24T23:23:36.960Z,81.40
2019-02-24T23:26:06.332Z,78.02
2019-02-24T23:28:35.704Z,82.17
2019-02-24T23:31:05.108Z,81.40
2019-02-24T23:33:34.484Z,76.17
2019-02-24T23:36:03.830Z,77.85
2019-02-24T23:38:34.410Z,75.65
2019-02-24T23:41:03.762Z,51.98
2019-02-24T23:43:33.199Z,55.08
2019-02-24T23:46:02.564Z,59.45
2019-02-24T23:48:31.948Z,73.67
2019-02-24T23:51:01.303Z,61.15
2019-02-24T23:53:30.644Z,61.98
2019-02-24T23:56:00.001Z,64.97
2019-02-24T23:58:29.372Z,45.52
